Brooks, Minnesota
Current Conditions -  °F | °C
As of 5:15 PM on Friday 19 Dec 2014 (Local Time) from KFSE Reporting Station
Haze Haze  
Wind Chill: 16°   Ceiling: 600
Heat Index: 25°   Visibility: 3mi
Dew Point: 23°   Wind: 8mph
Humidity: 93%   Direction: 160°SSE
Pressure: 30.04"   Gusts: NA
Location:  47.81°N, 96°W
Report Text: KFSE 192315Z AUTO 16007KT 3SM BR OVC006 M04/M05 A3004 RMK AO2
Loading
Personal Weather Stations






























Interactive Weather Map New forecast layout! Learn more

10-Day Weather Forecast

Advertisements
Track Severe Weather on mobile